68.6°F
Current conditions from King Hill
Updated every 5 minutes
 
  Tuesday September 2, 2014

Station Historical Data
Daily Summary for April 19, 2012 Units:  English    Metric   Both
« Previous Day
Next Day »
Daily Weekly Monthly Yearly Custom
  High: Low: Average:
Temperature: 69.0 °F 32.6 °F 52.4 °F
Dew Point: 41.2 °F 26.4 °F 32.7 °F
Humidity: 80% 27% 50%
Wind Speed: 10.0mph 0.0mph 4.4mph
Wind Gust: 18.0mph - -
Wind- - SSW
Pressure: 30.08 in 29.84 in -
Precipitation: 0.00 in    
Historical Graphs
 
 
Tabular Data for April 19, 2012
Time Temperature Dew Point Pressure Wind Wind Speed Wind Gust Humidity Daily Rainfall
00:04 34.8 °F 27.7 °F 30.08 in Calm   1.0 mph 75% 0.00 in
00:09 34.6 °F 27.2 °F 30.08 in Calm     74% 0.00 in
00:14 34.4 °F 27.6 °F 30.07 in Calm     76% 0.00 in
00:19 34.4 °F 27.6 °F 30.07 in Calm     76% 0.00 in
00:24 34.3 °F 27.8 °F 30.07 in Calm     77% 0.00 in
00:29 34.1 °F 27.7 °F 30.06 in Calm     77% 0.00 in
00:34 34.1 °F 27.7 °F 30.06 in Calm     77% 0.00 in
00:39 34.2 °F 27.7 °F 30.06 in Calm     77% 0.00 in
00:44 34.0 °F 27.2 °F 30.07 in Calm     76% 0.00 in
00:49 34.2 °F 27.4 °F 30.07 in Calm     76% 0.00 in
00:54 33.7 °F 27.3 °F 30.07 in Calm   1.0 mph 77% 0.00 in
00:59 33.8 °F 27.4 °F 30.07 in Calm   1.0 mph 77% 0.00 in
01:04 34.4 °F 27.6 °F 30.07 in Calm     76% 0.00 in
01:09 34.4 °F 27.6 °F 30.07 in Calm     76% 0.00 in
01:14 34.4 °F 27.3 °F 30.07 in Calm     75% 0.00 in
01:20 34.4 °F 27.0 °F 30.07 in Calm     74% 0.00 in
01:29 33.0 °F 26.6 °F 30.06 in Calm   1.0 mph 77% 0.00 in
01:34 32.6 °F 26.5 °F 30.06 in Calm   1.0 mph 78% 0.00 in
01:39 32.6 °F 26.8 °F 30.06 in Calm   1.0 mph 79% 0.00 in
01:44 33.4 °F 27.3 °F 30.06 in Calm     78% 0.00 in
01:49 34.2 °F 27.4 °F 30.05 in Calm   1.0 mph 76% 0.00 in
01:54 34.5 °F 27.4 °F 30.05 in Calm   1.0 mph 75% 0.00 in
01:59 35.0 °F 27.6 °F 30.05 in Calm     74% 0.00 in
02:04 34.7 °F 27.3 °F 30.05 in Calm     74% 0.00 in
02:09 34.2 °F 27.1 °F 30.05 in Calm     75% 0.00 in
02:14 33.5 °F 26.8 °F 30.05 in Calm     76% 0.00 in
02:19 33.4 °F 26.7 °F 30.05 in Calm     76% 0.00 in
02:24 33.4 °F 27.0 °F 30.05 in Calm     77% 0.00 in
02:29 33.2 °F 26.8 °F 30.04 in Calm     77% 0.00 in
02:34 33.0 °F 26.9 °F 30.04 in Calm   1.0 mph 78% 0.00 in
02:39 32.9 °F 26.8 °F 30.04 in Calm   2.0 mph 78% 0.00 in
02:49 33.7 °F 27.3 °F 30.04 in Calm   1.0 mph 77% 0.00 in
02:54 33.9 °F 27.1 °F 30.04 in Calm   1.0 mph 76% 0.00 in
02:59 34.1 °F 27.0 °F 30.04 in Calm   1.0 mph 75% 0.00 in
03:04 34.1 °F 27.0 °F 30.04 in Calm     75% 0.00 in
03:09 33.8 °F 28.3 °F 30.04 in Calm   1.0 mph 80% 0.00 in
03:14 33.5 °F 26.4 °F 30.04 in Calm   1.0 mph 75% 0.00 in
03:19 33.4 °F 26.7 °F 30.04 in Calm   1.0 mph 76% 0.00 in
03:24 33.2 °F 26.5 °F 30.04 in Calm   1.0 mph 76% 0.00 in
03:29 33.5 °F 26.8 °F 30.04 in Calm   1.0 mph 76% 0.00 in
03:34 34.4 °F 27.0 °F 30.04 in Calm     74% 0.00 in
03:39 34.8 °F 27.0 °F 30.04 in Calm   1.0 mph 73% 0.00 in
03:44 35.5 °F 27.4 °F 30.04 in Calm   1.0 mph 72% 0.00 in
03:49 35.9 °F 27.4 °F 30.03 in Calm     71% 0.00 in
03:55 36.0 °F 27.5 °F 30.03 in Calm   1.0 mph 71% 0.00 in
04:04 35.6 °F 27.1 °F 30.03 in SSE 1.0 mph 4.0 mph 71% 0.00 in
04:09 35.7 °F 27.2 °F 30.03 in SSE 1.0 mph 4.0 mph 71% 0.00 in
04:14 36.1 °F 27.6 °F 30.03 in SSE 2.0 mph 4.0 mph 71% 0.00 in
04:19 36.6 °F 27.4 °F 30.03 in SSE 1.0 mph 4.0 mph 69% 0.00 in
04:25 36.9 °F 27.7 °F 30.03 in Calm   4.0 mph 69% 0.00 in
04:34 37.0 °F 27.4 °F 30.03 in SSE 2.0 mph 4.0 mph 68% 0.00 in
04:39 37.3 °F 27.7 °F 30.03 in Calm   5.0 mph 68% 0.00 in
04:44 37.2 °F 27.3 °F 30.02 in SSE 1.0 mph 5.0 mph 67% 0.00 in
04:50 37.2 °F 27.3 °F 30.02 in SSE 1.0 mph 4.0 mph 67% 0.00 in
04:59 37.8 °F 27.5 °F 30.02 in SSE 2.0 mph 5.0 mph 66% 0.00 in
05:04 37.9 °F 27.6 °F 30.02 in SSE 1.0 mph 5.0 mph 66% 0.00 in
05:09 37.7 °F 27.4 °F 30.02 in Calm   5.0 mph 66% 0.00 in
05:14 36.9 °F 27.0 °F 30.02 in Calm   5.0 mph 67% 0.00 in
05:19 35.9 °F 26.7 °F 30.01 in Calm   3.0 mph 69% 0.00 in
05:24 35.4 °F 26.6 °F 30.02 in South 1.0 mph 5.0 mph 70% 0.00 in
05:29 35.1 °F 26.6 °F 30.02 in Calm   5.0 mph 71% 0.00 in
05:35 35.1 °F 26.6 °F 30.02 in Calm   5.0 mph 71% 0.00 in
05:44 35.1 °F 26.6 °F 30.02 in SSW 1.0 mph 7.0 mph 71% 0.00 in
05:49 35.1 °F 26.6 °F 30.02 in SSW 1.0 mph 7.0 mph 71% 0.00 in
05:54 35.6 °F 27.1 °F 30.02 in SSW 3.0 mph 7.0 mph 71% 0.00 in
05:59 36.6 °F 27.4 °F 30.02 in SSW 1.0 mph 7.0 mph 69% 0.00 in
06:04 37.1 °F 27.2 °F 30.02 in SSW 1.0 mph 6.0 mph 67% 0.00 in
06:09 37.1 °F 27.2 °F 30.02 in SSW 1.0 mph 6.0 mph 67% 0.00 in
06:14 36.8 °F 27.2 °F 30.02 in Calm   5.0 mph 68% 0.00 in
06:19 36.6 °F 28.4 °F 30.02 in Calm   4.0 mph 72% 0.00 in
06:24 36.5 °F 27.3 °F 30.03 in Calm   2.0 mph 69% 0.00 in
06:29 36.2 °F 27.0 °F 30.03 in Calm   1.0 mph 69% 0.00 in
06:34 36.1 °F 26.9 °F 30.03 in Calm     69% 0.00 in
06:39 36.6 °F 27.0 °F 30.03 in Calm   1.0 mph 68% 0.00 in
06:45 37.2 °F 27.3 °F 30.03 in SSW 1.0 mph 4.0 mph 67% 0.00 in
06:54 37.9 °F 27.6 °F 30.03 in SSW 2.0 mph 6.0 mph 66% 0.00 in
06:59 38.2 °F 27.8 °F 30.03 in SSW 1.0 mph 6.0 mph 66% 0.00 in
07:04 38.7 °F 28.0 °F 30.03 in SSW 4.0 mph 7.0 mph 65% 0.00 in
07:09 39.6 °F 28.4 °F 30.03 in SSW 2.0 mph 8.0 mph 64% 0.00 in
07:14 39.9 °F 28.7 °F 30.03 in SSW 1.0 mph 8.0 mph 64% 0.00 in
07:19 40.3 °F 28.7 °F 30.03 in SSW 2.0 mph 7.0 mph 63% 0.00 in
07:24 41.2 °F 28.8 °F 30.02 in SSW 3.0 mph 8.0 mph 61% 0.00 in
07:29 42.2 °F 29.3 °F 30.02 in SSW 3.0 mph 9.0 mph 60% 0.00 in
07:35 43.0 °F 29.2 °F 30.02 in SSW 5.0 mph 9.0 mph 58% 0.00 in
07:44 44.2 °F 30.8 °F 30.02 in SSW 3.0 mph 9.0 mph 59% 0.00 in
07:49 44.7 °F 30.4 °F 30.02 in SSW 3.0 mph 8.0 mph 57% 0.00 in
07:54 45.1 °F 30.3 °F 30.02 in SSW 3.0 mph 9.0 mph 56% 0.00 in
07:59 45.4 °F 30.2 °F 30.02 in SSW 4.0 mph 11.0 mph 55% 0.00 in
08:04 45.5 °F 29.8 °F 30.02 in SSW 3.0 mph 11.0 mph 54% 0.00 in
08:09 46.3 °F 30.1 °F 30.02 in SSW 6.0 mph 11.0 mph 53% 0.00 in
08:14 47.0 °F 30.8 °F 30.01 in SSW 5.0 mph 12.0 mph 53% 0.00 in
08:19 47.6 °F 30.8 °F 30.01 in South 6.0 mph 13.0 mph 52% 0.00 in
08:24 48.1 °F 30.3 °F 30.01 in SSW 7.0 mph 15.0 mph 50% 0.00 in
08:29 48.5 °F 31.7 °F 30.01 in SSW 4.0 mph 15.0 mph 52% 0.00 in
08:34 48.8 °F 32.0 °F 30.01 in SSW 4.0 mph 14.0 mph 52% 0.00 in
08:39 49.0 °F 30.7 °F 30.01 in SSW 6.0 mph 14.0 mph 49% 0.00 in
08:44 49.1 °F 30.8 °F 30.01 in SSW 8.0 mph 12.0 mph 49% 0.00 in
08:49 49.4 °F 31.0 °F 30.01 in SSW 6.0 mph 12.0 mph 49% 0.00 in
08:54 49.9 °F 31.0 °F 30.01 in SW 7.0 mph 12.0 mph 48% 0.00 in
08:59 50.0 °F 31.1 °F 30.02 in SW 8.0 mph 13.0 mph 48% 0.00 in
09:04 50.4 °F 31.5 °F 30.01 in SSW 7.0 mph 14.0 mph 48% 0.00 in
09:09 51.0 °F 31.5 °F 30.01 in SW 4.0 mph 14.0 mph 47% 0.00 in
09:14 51.5 °F 33.0 °F 30.01 in SW 4.0 mph 11.0 mph 49% 0.00 in
09:19 51.7 °F 31.6 °F 30.01 in SW 8.0 mph 12.0 mph 46% 0.00 in
09:25 52.0 °F 31.3 °F 30.01 in SSW 7.0 mph 14.0 mph 45% 0.00 in
09:35 52.7 °F 31.4 °F 30.00 in SW 7.0 mph 13.0 mph 44% 0.00 in
09:40 52.8 °F 32.1 °F 30.00 in SSW 7.0 mph 13.0 mph 45% 0.00 in
09:49 54.0 °F 32.6 °F 30.00 in SSW 5.0 mph 11.0 mph 44% 0.00 in
09:55 53.8 °F 31.8 °F 30.00 in SSW 8.0 mph 13.0 mph 43% 0.00 in
10:04 54.6 °F 32.0 °F 30.00 in SSW 7.0 mph 13.0 mph 42% 0.00 in
10:09 55.0 °F 32.9 °F 30.00 in SSW 4.0 mph 12.0 mph 43% 0.00 in
10:14 55.9 °F 32.5 °F 29.99 in SSW 6.0 mph 12.0 mph 41% 0.00 in
10:19 56.1 °F 32.1 °F 29.99 in SSW 7.0 mph 11.0 mph 40% 0.00 in
10:24 56.2 °F 31.6 °F 29.99 in SW 6.0 mph 12.0 mph 39% 0.00 in
10:29 56.6 °F 31.3 °F 29.99 in SW 8.0 mph 15.0 mph 38% 0.00 in
10:35 56.8 °F 30.8 °F 29.99 in SSW 8.0 mph 15.0 mph 37% 0.00 in
10:44 57.6 °F 32.2 °F 29.99 in SW 4.0 mph 11.0 mph 38% 0.00 in
10:50 58.4 °F 32.9 °F 29.98 in SW 6.0 mph 10.0 mph 38% 0.00 in
10:59 58.8 °F 31.2 °F 29.98 in SSW 5.0 mph 13.0 mph 35% 0.00 in
11:04 59.3 °F 32.4 °F 29.98 in SSW 4.0 mph 13.0 mph 36% 0.00 in
11:09 59.9 °F 33.6 °F 29.98 in SSW 4.0 mph 10.0 mph 37% 0.00 in
11:14 60.4 °F 32.6 °F 29.97 in SSW 3.0 mph 10.0 mph 35% 0.00 in
11:20 60.6 °F 31.3 °F 29.97 in SSW 6.0 mph 12.0 mph 33% 0.00 in
11:29 61.2 °F 29.5 °F 29.97 in SSW 5.0 mph 12.0 mph 30% 0.00 in
11:35 61.4 °F 31.3 °F 29.97 in WSW 3.0 mph 12.0 mph 32% 0.00 in
11:45 61.3 °F 29.6 °F 29.96 in SSW 5.0 mph 12.0 mph 30% 0.00 in
11:55 61.6 °F 28.2 °F 29.96 in SW 4.0 mph 15.0 mph 28% 0.00 in
12:04 62.5 °F 30.7 °F 29.96 in SSW 7.0 mph 14.0 mph 30% 0.00 in
12:09 63.0 °F 30.3 °F 29.96 in South 5.0 mph 14.0 mph 29% 0.00 in
12:14 63.5 °F 30.7 °F 29.95 in SW 4.0 mph 12.0 mph 29% 0.00 in
12:19 63.3 °F 30.5 °F 29.96 in SSW 7.0 mph 17.0 mph 29% 0.00 in
12:24 63.4 °F 30.6 °F 29.96 in SSW 7.0 mph 17.0 mph 29% 0.00 in
12:29 64.0 °F 30.3 °F 29.95 in SSW 6.0 mph 13.0 mph 28% 0.00 in
12:34 64.1 °F 32.0 °F 29.95 in SSW 4.0 mph 14.0 mph 30% 0.00 in
12:39 64.6 °F 31.6 °F 29.95 in SSW 7.0 mph 14.0 mph 29% 0.00 in
12:45 63.7 °F 32.5 °F 29.95 in SSW 5.0 mph 13.0 mph 31% 0.00 in
12:55 64.3 °F 31.4 °F 29.95 in SSW 8.0 mph 14.0 mph 29% 0.00 in
13:04 64.9 °F 31.0 °F 29.94 in SSW 7.0 mph 15.0 mph 28% 0.00 in
13:09 65.2 °F 32.2 °F 29.94 in South 6.0 mph 15.0 mph 29% 0.00 in
13:14 65.5 °F 34.1 °F 29.94 in South 5.0 mph 15.0 mph 31% 0.00 in
13:20 65.8 °F 32.7 °F 29.94 in SW 9.0 mph 15.0 mph 29% 0.00 in
13:29 65.8 °F 33.5 °F 29.94 in SW 7.0 mph 15.0 mph 30% 0.00 in
13:34 66.1 °F 31.2 °F 29.94 in SW 8.0 mph 13.0 mph 27% 0.00 in
13:40 66.3 °F 34.0 °F 29.93 in South 5.0 mph 13.0 mph 30% 0.00 in
13:50 67.1 °F 33.8 °F 29.93 in SSW 7.0 mph 14.0 mph 29% 0.00 in
13:59 67.3 °F 33.1 °F 29.93 in SSW 6.0 mph 13.0 mph 28% 0.00 in
14:04 67.3 °F 33.1 °F 29.93 in WSW 8.0 mph 14.0 mph 28% 0.00 in
14:09 67.1 °F 33.8 °F 29.92 in SSW 6.0 mph 14.0 mph 29% 0.00 in
14:14 67.8 °F 33.5 °F 29.92 in SSW 8.0 mph 15.0 mph 28% 0.00 in
14:19 67.8 °F 36.1 °F 29.92 in SW 4.0 mph 15.0 mph 31% 0.00 in
14:29 68.3 °F 35.7 °F 29.91 in SW 7.0 mph 15.0 mph 30% 0.00 in
14:34 68.1 °F 35.5 °F 29.91 in SSW 5.0 mph 14.0 mph 30% 0.00 in
14:39 68.4 °F 36.6 °F 29.91 in South 4.0 mph 17.0 mph 31% 0.00 in
14:44 68.5 °F 35.9 °F 29.91 in SSW 6.0 mph 17.0 mph 30% 0.00 in
14:50 67.9 °F 35.3 °F 29.90 in SSW 7.0 mph 18.0 mph 30% 0.00 in
14:59 67.9 °F 35.3 °F 29.89 in SW 6.0 mph 15.0 mph 30% 0.00 in
15:04 68.3 °F 34.8 °F 29.89 in SW 9.0 mph 15.0 mph 29% 0.00 in
15:14 68.8 °F 36.1 °F 29.89 in SSW 8.0 mph 15.0 mph 30% 0.00 in
15:20 68.4 °F 35.8 °F 29.88 in SSW 7.0 mph 15.0 mph 30% 0.00 in
15:29 66.7 °F 35.1 °F 29.88 in SSW 6.0 mph 16.0 mph 31% 0.00 in
15:34 66.6 °F 35.8 °F 29.87 in SSW 6.0 mph 16.0 mph 32% 0.00 in
15:39 66.3 °F 35.6 °F 29.87 in SW 6.0 mph 14.0 mph 32% 0.00 in
15:45 67.5 °F 37.4 °F 29.87 in SSW 4.0 mph 14.0 mph 33% 0.00 in
15:50 67.5 °F 35.8 °F 29.87 in SSW 6.0 mph 14.0 mph 31% 0.00 in
15:59 67.5 °F 37.4 °F 29.86 in SW 6.0 mph 14.0 mph 33% 0.00 in
16:04 68.0 °F 37.1 °F 29.86 in SSW 4.0 mph 15.0 mph 32% 0.00 in
16:09 67.8 °F 36.9 °F 29.86 in South 2.0 mph 15.0 mph 32% 0.00 in
16:14 67.4 °F 36.5 °F 29.86 in SW 7.0 mph 13.0 mph 32% 0.00 in
16:19 67.7 °F 36.0 °F 29.86 in SSW 10.0 mph 17.0 mph 31% 0.00 in
16:24 68.7 °F 36.0 °F 29.86 in SSW 6.0 mph 17.0 mph 30% 0.00 in
16:29 68.3 °F 35.7 °F 29.86 in SSW 7.0 mph 14.0 mph 30% 0.00 in
16:34 68.8 °F 37.0 °F 29.86 in SSW 7.0 mph 16.0 mph 31% 0.00 in
16:39 68.5 °F 36.7 °F 29.86 in SSW 8.0 mph 16.0 mph 31% 0.00 in
16:44 67.8 °F 36.1 °F 29.86 in SSW 6.0 mph 15.0 mph 31% 0.00 in
16:49 68.5 °F 37.5 °F 29.86 in SSW 7.0 mph 17.0 mph 32% 0.00 in
16:54 69.0 °F 37.9 °F 29.85 in SW 1.0 mph 17.0 mph 32% 0.00 in
16:59 68.6 °F 36.8 °F 29.86 in SSW 7.0 mph 12.0 mph 31% 0.00 in
17:04 68.3 °F 38.1 °F 29.86 in SSW 3.0 mph 14.0 mph 33% 0.00 in
17:09 68.0 °F 37.8 °F 29.85 in SW 3.0 mph 16.0 mph 33% 0.00 in
17:19 67.7 °F 36.8 °F 29.85 in SSW 6.0 mph 13.0 mph 32% 0.00 in
17:24 67.0 °F 37.0 °F 29.85 in SSW 6.0 mph 15.0 mph 33% 0.00 in
17:29 66.9 °F 37.6 °F 29.85 in SW 5.0 mph 15.0 mph 34% 0.00 in
17:34 67.2 °F 37.9 °F 29.85 in SW 7.0 mph 13.0 mph 34% 0.00 in
17:39 67.7 °F 38.3 °F 29.85 in SW 6.0 mph 13.0 mph 34% 0.00 in
17:44 67.6 °F 37.5 °F 29.85 in SSW 9.0 mph 15.0 mph 33% 0.00 in
17:49 67.2 °F 37.9 °F 29.85 in SW 6.0 mph 15.0 mph 34% 0.00 in
17:54 67.5 °F 37.4 °F 29.85 in SSW 6.0 mph 15.0 mph 33% 0.00 in
17:59 66.8 °F 37.5 °F 29.84 in SSW 7.0 mph 15.0 mph 34% 0.00 in
18:04 66.2 °F 37.8 °F 29.84 in SSW 5.0 mph 14.0 mph 35% 0.00 in
18:14 67.1 °F 37.8 °F 29.84 in SSW 6.0 mph 14.0 mph 34% 0.00 in
18:19 67.6 °F 39.0 °F 29.84 in SW 7.0 mph 13.0 mph 35% 0.00 in
18:24 67.2 °F 37.9 °F 29.85 in SSW 7.0 mph 12.0 mph 34% 0.00 in
18:29 67.0 °F 37.7 °F 29.85 in SSW 6.0 mph 18.0 mph 34% 0.00 in
18:34 66.8 °F 38.3 °F 29.85 in SSW 3.0 mph 18.0 mph 35% 0.00 in
18:39 66.1 °F 38.4 °F 29.85 in SW 6.0 mph 14.0 mph 36% 0.00 in
18:44 65.8 °F 37.4 °F 29.85 in SW 2.0 mph 14.0 mph 35% 0.00 in
18:50 65.4 °F 37.1 °F 29.85 in SSW 7.0 mph 15.0 mph 35% 0.00 in
18:55 64.9 °F 37.3 °F 29.86 in SW 7.0 mph 15.0 mph 36% 0.00 in
19:04 65.0 °F 37.4 °F 29.85 in SW 5.0 mph 14.0 mph 36% 0.00 in
19:09 64.9 °F 37.3 °F 29.85 in SW 4.0 mph 13.0 mph 36% 0.00 in
19:14 64.7 °F 37.1 °F 29.85 in SW 3.0 mph 13.0 mph 36% 0.00 in
19:19 64.3 °F 37.5 °F 29.85 in SSW 4.0 mph 9.0 mph 37% 0.00 in
19:25 64.1 °F 37.3 °F 29.85 in SSW 4.0 mph 8.0 mph 37% 0.00 in
19:34 63.7 °F 37.6 °F 29.85 in SSW 3.0 mph 10.0 mph 38% 0.00 in
19:39 63.3 °F 37.3 °F 29.85 in SSW 2.0 mph 10.0 mph 38% 0.00 in
19:44 62.9 °F 37.6 °F 29.85 in SSW 1.0 mph 10.0 mph 39% 0.00 in
19:49 62.3 °F 37.7 °F 29.86 in SSW 3.0 mph 7.0 mph 40% 0.00 in
19:55 62.2 °F 37.6 °F 29.86 in SSW 4.0 mph 11.0 mph 40% 0.00 in
20:00 62.3 °F 37.7 °F 29.86 in SW 2.0 mph 11.0 mph 40% 0.00 in
20:09 61.8 °F 37.2 °F 29.87 in SW 4.0 mph 9.0 mph 40% 0.00 in
20:14 61.5 °F 37.0 °F 29.87 in SW 3.0 mph 9.0 mph 40% 0.00 in
20:20 61.3 °F 36.8 °F 29.87 in Calm   7.0 mph 40% 0.00 in
20:29 60.2 °F 37.0 °F 29.88 in SW 3.0 mph 5.0 mph 42% 0.00 in
20:34 59.8 °F 36.7 °F 29.88 in SW 1.0 mph 6.0 mph 42% 0.00 in
20:40 59.1 °F 36.6 °F 29.89 in SW 2.0 mph 6.0 mph 43% 0.00 in
20:45 59.0 °F 37.1 °F 29.88 in WSW 2.0 mph 5.0 mph 44% 0.00 in
20:54 58.6 °F 36.8 °F 29.88 in SSW 1.0 mph 7.0 mph 44% 0.00 in
20:59 58.5 °F 37.2 °F 29.88 in SSW 2.0 mph 7.0 mph 45% 0.00 in
21:04 58.4 °F 37.2 °F 29.89 in Calm   6.0 mph 45% 0.00 in
21:09 59.0 °F 37.7 °F 29.89 in SSW 2.0 mph 8.0 mph 45% 0.00 in
21:14 58.5 °F 37.2 °F 29.88 in SSW 1.0 mph 8.0 mph 45% 0.00 in
21:19 58.3 °F 37.6 °F 29.88 in SSW 3.0 mph 7.0 mph 46% 0.00 in
21:24 58.4 °F 37.7 °F 29.88 in SW 1.0 mph 8.0 mph 46% 0.00 in
21:29 58.2 °F 38.1 °F 29.89 in Calm   8.0 mph 47% 0.00 in
21:35 58.0 °F 37.9 °F 29.89 in SW 2.0 mph 6.0 mph 47% 0.00 in
21:45 59.0 °F 38.8 °F 29.89 in SW 3.0 mph 10.0 mph 47% 0.00 in
21:54 59.4 °F 39.7 °F 29.89 in WSW 1.0 mph 8.0 mph 48% 0.00 in
21:59 59.0 °F 39.3 °F 29.89 in WSW 5.0 mph 11.0 mph 48% 0.00 in
22:05 59.0 °F 39.9 °F 29.89 in WSW 2.0 mph 11.0 mph 49% 0.00 in
22:14 58.6 °F 39.5 °F 29.89 in Calm   8.0 mph 49% 0.00 in
22:19 58.3 °F 39.8 °F 29.89 in WSW 2.0 mph 8.0 mph 50% 0.00 in
22:24 58.5 °F 39.9 °F 29.88 in SW 3.0 mph 10.0 mph 50% 0.00 in
22:29 58.6 °F 39.5 °F 29.88 in SW 2.0 mph 10.0 mph 49% 0.00 in
22:34 58.5 °F 39.9 °F 29.88 in SW 1.0 mph 6.0 mph 50% 0.00 in
22:39 58.2 °F 39.7 °F 29.88 in SW 1.0 mph 6.0 mph 50% 0.00 in
22:44 57.8 °F 39.8 °F 29.87 in Calm   4.0 mph 51% 0.00 in
22:49 57.4 °F 39.4 °F 29.88 in Calm   4.0 mph 51% 0.00 in
22:54 56.6 °F 39.7 °F 29.88 in Calm   2.0 mph 53% 0.00 in
22:59 56.4 °F 39.5 °F 29.89 in WSW 2.0 mph 7.0 mph 53% 0.00 in
23:04 56.3 °F 39.9 °F 29.89 in WSW 1.0 mph 7.0 mph 54% 0.00 in
23:09 56.4 °F 40.0 °F 29.89 in WSW 1.0 mph 5.0 mph 54% 0.00 in
23:14 56.7 °F 40.3 °F 29.89 in WSW 2.0 mph 6.0 mph 54% 0.00 in
23:19 56.6 °F 40.2 °F 29.89 in SW 1.0 mph 6.0 mph 54% 0.00 in
23:24 56.3 °F 39.9 °F 29.89 in WSW 2.0 mph 8.0 mph 54% 0.00 in
23:29 56.3 °F 40.4 °F 29.89 in WSW 2.0 mph 8.0 mph 55% 0.00 in
23:34 57.2 °F 41.2 °F 29.89 in West 2.0 mph 10.0 mph 55% 0.00 in
23:39 57.8 °F 40.8 °F 29.89 in WSW 3.0 mph 10.0 mph 53% 0.00 in
23:45 58.2 °F 41.2 °F 29.89 in SSW 1.0 mph 9.0 mph 53% 0.00 in
23:50 58.0 °F 41.0 °F 29.88 in SW 2.0 mph 7.0 mph 53% 0.00 in
23:59 58.0 °F 40.5 °F 29.88 in SSW 2.0 mph 6.0 mph 52% 0.00 in
Westford Weather
Compliments of Weather Underground

 
 
Current Radar Loop:

Copyright © WestfordWeather.net 2007-2014. All rights reserved.